createdAt,value
2019-02-07T00:00:25.628Z,28.80
2019-02-07T00:02:53.290Z,29.33
2019-02-07T00:05:20.950Z,21.43
2019-02-07T00:07:49.018Z,21.87
2019-02-07T00:10:16.982Z,23.20
2019-02-07T00:12:44.835Z,27.30
2019-02-07T00:15:13.843Z,20.83
2019-02-07T00:17:42.019Z,20.02
2019-02-07T00:20:10.249Z,22.10
2019-02-07T00:22:39.344Z,23.20
2019-02-07T00:25:07.830Z,22.23
2019-02-07T00:27:36.421Z,24.60
2019-02-07T00:30:06.547Z,24.65
2019-02-07T00:32:34.238Z,23.15
2019-02-07T00:35:02.507Z,25.70
2019-02-07T00:37:30.178Z,24.87
2019-02-07T00:39:58.205Z,23.57
2019-02-07T00:42:26.108Z,25.10
2019-02-07T00:44:53.847Z,22.40
2019-02-07T00:47:22.079Z,20.20
2019-02-07T00:49:49.790Z,19.05
2019-02-07T00:52:17.290Z,23.60
2019-02-07T00:54:45.230Z,22.97
2019-02-07T00:57:13.120Z,23.37
2019-02-07T00:59:40.895Z,23.90
2019-02-07T01:02:08.903Z,21.20
2019-02-07T01:04:36.811Z,29.53
2019-02-07T01:07:05.306Z,25.50
2019-02-07T01:09:33.242Z,28.23
2019-02-07T01:12:00.894Z,27.73
2019-02-07T01:14:28.889Z,24.00
2019-02-07T01:16:56.874Z,30.15
2019-02-07T01:19:24.820Z,20.77
2019-02-07T01:21:52.814Z,25.27
2019-02-07T01:24:20.458Z,21.80
2019-02-07T01:26:48.402Z,24.73
2019-02-07T01:29:16.542Z,24.70
2019-02-07T01:31:44.586Z,24.07
2019-02-07T01:34:12.583Z,21.80
2019-02-07T01:36:42.422Z,27.87
2019-02-07T01:39:10.736Z,21.03
2019-02-07T01:41:38.789Z,20.63
2019-02-07T01:44:06.447Z,23.83
2019-02-07T01:46:35.021Z,26.40
2019-02-07T01:49:03.115Z,26.90
2019-02-07T01:51:30.760Z,24.33
2019-02-07T01:53:58.876Z,24.87
2019-02-07T01:56:26.752Z,20.37
2019-02-07T01:58:54.366Z,22.60
2019-02-07T02:01:22.019Z,20.90
2019-02-07T02:03:49.938Z,22.53
2019-02-07T02:06:17.547Z,25.33
2019-02-07T02:08:45.415Z,26.10
2019-02-07T02:11:13.351Z,21.70
2019-02-07T02:13:41.044Z,20.50
2019-02-07T02:16:09.045Z,24.90
2019-02-07T02:18:36.968Z,22.50
2019-02-07T02:21:04.619Z,20.73
2019-02-07T02:23:32.710Z,23.50
2019-02-07T02:26:00.357Z,21.57
2019-02-07T02:28:28.225Z,22.30
2019-02-07T02:30:56.241Z,24.87
2019-02-07T02:33:24.215Z,27.53
2019-02-07T02:35:51.944Z,23.53
2019-02-07T02:38:19.849Z,24.77
2019-02-07T02:40:47.581Z,25.90
2019-02-07T02:43:16.065Z,23.80
2019-02-07T02:45:44.136Z,22.30
2019-02-07T02:48:12.335Z,21.87
2019-02-07T02:50:40.369Z,24.57
2019-02-07T02:53:08.003Z,22.73
2019-02-07T02:55:37.638Z,26.37
2019-02-07T02:58:05.605Z,26.77
2019-02-07T03:00:52.796Z,28.50
2019-02-07T03:03:29.210Z,27.93
2019-02-07T03:06:16.265Z,25.37
2019-02-07T03:09:00.393Z,29.50
2019-02-07T03:11:54.622Z,30.07
2019-02-07T03:14:44.679Z,28.30
2019-02-07T03:17:31.747Z,36.00
2019-02-07T03:20:29.671Z,32.30
2019-02-07T03:23:24.418Z,27.87
2019-02-07T03:26:10.631Z,26.40
2019-02-07T03:29:01.831Z,28.93
2019-02-07T03:31:47.582Z,30.27
2019-02-07T03:34:31.963Z,32.83
2019-02-07T03:37:11.752Z,26.93
2019-02-07T03:39:59.264Z,31.37
2019-02-07T03:42:46.410Z,39.80
2019-02-07T03:45:45.472Z,33.17
2019-02-07T03:48:31.231Z,30.27
2019-02-07T03:51:17.285Z,24.53
2019-02-07T03:54:10.935Z,26.77
2019-02-07T03:56:56.250Z,28.40
2019-02-07T03:59:35.479Z,30.03
2019-02-07T04:02:25.579Z,29.70
2019-02-07T04:05:20.210Z,25.20
2019-02-07T04:08:19.103Z,31.60
2019-02-07T04:11:24.716Z,24.77
2019-02-07T04:14:20.923Z,35.67
2019-02-07T04:17:16.878Z,27.13
2019-02-07T04:20:22.067Z,30.07
2019-02-07T04:23:15.070Z,32.03
2019-02-07T04:25:58.821Z,27.83
2019-02-07T04:28:48.639Z,31.87
2019-02-07T04:31:42.170Z,35.67
2019-02-07T04:34:35.289Z,25.30
2019-02-07T04:37:25.694Z,27.83
2019-02-07T04:40:12.334Z,31.40
2019-02-07T04:43:04.972Z,28.50
2019-02-07T04:45:55.144Z,31.27
2019-02-07T04:48:48.275Z,26.50
2019-02-07T04:51:37.378Z,30.03
2019-02-07T04:54:42.684Z,36.55
2019-02-07T04:57:30.253Z,32.93
2019-02-07T05:00:24.317Z,34.48
2019-02-07T05:03:14.218Z,28.10
2019-02-07T05:06:10.549Z,27.20
2019-02-07T05:09:06.383Z,27.45
2019-02-07T05:12:11.707Z,35.20
2019-02-07T05:14:57.490Z,26.77
2019-02-07T05:17:53.559Z,26.67
2019-02-07T05:20:30.422Z,29.77
2019-02-07T05:23:20.886Z,27.73
2019-02-07T05:26:23.070Z,32.67
2019-02-07T05:29:08.336Z,33.77
2019-02-07T05:32:01.232Z,27.60
2019-02-07T05:34:48.867Z,27.27
2019-02-07T05:37:35.991Z,31.20
2019-02-07T05:40:12.577Z,28.20
2019-02-07T05:42:47.959Z,36.40
2019-02-07T05:45:33.968Z,34.10
2019-02-07T05:48:23.870Z,31.77
2019-02-07T05:51:09.607Z,33.40
2019-02-07T05:54:02.874Z,33.00
2019-02-07T05:56:48.854Z,31.57
2019-02-07T05:59:39.529Z,37.53
2019-02-07T06:02:26.700Z,30.87
2019-02-07T06:05:15.562Z,27.80
2019-02-07T06:08:06.127Z,30.57
2019-02-07T06:10:51.685Z,26.53
2019-02-07T06:13:32.587Z,24.43
2019-02-07T06:16:19.722Z,31.37
2019-02-07T06:18:57.055Z,29.80
2019-02-07T06:21:34.594Z,30.60
2019-02-07T06:24:09.330Z,30.20
2019-02-07T06:27:05.654Z,28.60
2019-02-07T06:29:50.094Z,27.23
2019-02-07T06:32:55.348Z,25.73
2019-02-07T06:35:48.510Z,27.27
2019-02-07T06:38:38.902Z,28.00
2019-02-07T06:41:14.359Z,24.20
2019-02-07T06:43:49.811Z,28.43
2019-02-07T06:46:52.290Z,29.07
2019-02-07T06:49:41.762Z,27.83
2019-02-07T06:52:27.494Z,27.70
2019-02-07T06:55:14.612Z,23.57
2019-02-07T06:58:07.411Z,28.80
2019-02-07T07:00:49.704Z,24.87
2019-02-07T07:03:35.501Z,26.10
2019-02-07T07:06:28.350Z,22.30
2019-02-07T07:09:17.987Z,25.40
2019-02-07T07:12:04.379Z,22.80
2019-02-07T07:14:50.206Z,30.43
2019-02-07T07:17:35.639Z,22.27
2019-02-07T07:20:17.228Z,19.00
2019-02-07T07:23:04.603Z,25.53
2019-02-07T07:25:50.366Z,22.40
2019-02-07T07:28:37.306Z,22.77
2019-02-07T07:31:24.450Z,29.77
2019-02-07T07:34:20.645Z,25.90
2019-02-07T07:37:10.350Z,26.00
2019-02-07T07:39:57.767Z,22.17
2019-02-07T07:42:48.403Z,24.87
2019-02-07T07:45:35.931Z,28.13
2019-02-07T07:48:38.494Z,28.00
2019-02-07T07:51:20.725Z,30.57
2019-02-07T07:54:08.730Z,22.50
2019-02-07T07:56:46.968Z,31.37
2019-02-07T07:59:39.418Z,32.37
2019-02-07T08:02:25.454Z,28.53
2019-02-07T08:05:12.394Z,24.10
2019-02-07T08:08:03.695Z,25.57
2019-02-07T08:10:45.744Z,21.03
2019-02-07T08:13:50.986Z,27.80
2019-02-07T08:16:41.723Z,24.00
2019-02-07T08:19:22.518Z,23.63
2019-02-07T08:22:28.199Z,25.77
2019-02-07T08:25:13.839Z,22.53
2019-02-07T08:28:19.271Z,25.40
2019-02-07T08:30:53.896Z,21.70
2019-02-07T08:33:40.302Z,26.83
2019-02-07T08:36:36.539Z,25.03
2019-02-07T08:39:31.841Z,27.03
2019-02-07T08:42:18.030Z,24.03
2019-02-07T08:45:07.999Z,21.17
2019-02-07T08:47:58.643Z,20.67
2019-02-07T08:50:42.801Z,21.03
2019-02-07T08:53:27.353Z,22.57
2019-02-07T08:56:14.953Z,21.00
2019-02-07T08:59:14.631Z,20.13
2019-02-07T09:02:07.996Z,24.57
2019-02-07T09:04:45.614Z,21.10
2019-02-07T09:07:27.928Z,20.70
2019-02-07T09:10:21.428Z,21.30
2019-02-07T09:13:17.527Z,16.73
2019-02-07T09:16:10.461Z,21.27
2019-02-07T09:19:15.627Z,20.47
2019-02-07T09:22:05.678Z,23.40
2019-02-07T09:24:55.622Z,16.20
2019-02-07T09:27:54.676Z,21.17
2019-02-07T09:30:54.626Z,18.83
2019-02-07T09:33:41.667Z,21.30
2019-02-07T09:36:28.872Z,16.87
2019-02-07T09:39:22.201Z,14.87
2019-02-07T09:42:27.848Z,25.13
2019-02-07T09:45:24.083Z,23.40
2019-02-07T09:48:23.075Z,22.97
2019-02-07T09:51:04.593Z,22.27
2019-02-07T09:53:50.249Z,16.30
2019-02-07T09:56:40.317Z,21.07
2019-02-07T09:59:33.086Z,17.00
2019-02-07T10:02:21.437Z,23.33
2019-02-07T10:05:08.879Z,19.47
2019-02-07T10:07:55.072Z,25.33
2019-02-07T10:10:48.329Z,19.10
2019-02-07T10:13:46.109Z,24.00
2019-02-07T10:16:35.977Z,19.67
2019-02-07T10:19:19.365Z,19.87
2019-02-07T10:22:06.498Z,21.70
2019-02-07T10:24:56.311Z,20.43
2019-02-07T10:27:42.111Z,22.10
2019-02-07T10:30:28.715Z,18.97
2019-02-07T10:33:08.551Z,21.40
2019-02-07T10:35:54.955Z,18.20
2019-02-07T10:38:32.498Z,21.13
2019-02-07T10:41:11.381Z,24.63
2019-02-07T10:43:58.876Z,18.50
2019-02-07T10:46:44.258Z,18.80
2019-02-07T10:49:26.238Z,23.63
2019-02-07T10:52:11.904Z,20.73
2019-02-07T10:54:57.430Z,17.93
2019-02-07T10:57:38.196Z,20.60
2019-02-07T11:00:42.578Z,17.33
2019-02-07T11:03:29.746Z,18.80
2019-02-07T11:06:22.503Z,25.20
2019-02-07T11:09:18.491Z,20.83
2019-02-07T11:12:04.499Z,23.30
2019-02-07T11:14:54.188Z,21.33
2019-02-07T11:17:39.762Z,20.70
2019-02-07T11:20:33.346Z,20.13
2019-02-07T11:23:23.711Z,24.50
2019-02-07T11:26:09.331Z,19.70
2019-02-07T11:29:08.577Z,25.83
2019-02-07T11:31:54.044Z,18.60
2019-02-07T11:34:50.716Z,21.70
2019-02-07T11:37:47.253Z,18.03
2019-02-07T11:40:37.598Z,18.80
2019-02-07T11:43:15.857Z,21.00
2019-02-07T11:46:03.334Z,18.53
2019-02-07T11:49:06.615Z,24.57
2019-02-07T11:51:51.578Z,24.10
2019-02-07T11:54:40.915Z,22.43
2019-02-07T11:57:31.074Z,20.20
2019-02-07T12:00:24.241Z,20.73
2019-02-07T12:03:20.310Z,19.67
2019-02-07T12:06:22.949Z,18.27
2019-02-07T12:08:59.360Z,20.97
2019-02-07T12:11:45.256Z,19.17
2019-02-07T12:14:28.306Z,24.13
2019-02-07T12:17:23.048Z,22.03
2019-02-07T12:20:05.959Z,21.43
2019-02-07T12:22:51.960Z,20.17
2019-02-07T12:25:39.048Z,23.07
2019-02-07T12:28:26.314Z,20.17
2019-02-07T12:31:19.730Z,16.30
2019-02-07T12:34:02.552Z,17.70
2019-02-07T12:36:48.461Z,18.67
2019-02-07T12:39:34.271Z,19.77
2019-02-07T12:42:17.963Z,21.10
2019-02-07T12:45:05.056Z,16.07
2019-02-07T12:47:49.291Z,21.93
2019-02-07T12:50:37.342Z,16.37
2019-02-07T12:53:25.399Z,16.70
2019-02-07T12:56:21.563Z,18.50
2019-02-07T12:59:08.783Z,17.93
2019-02-07T13:01:55.154Z,18.10
2019-02-07T13:04:45.485Z,17.07
2019-02-07T13:07:31.406Z,17.73
2019-02-07T13:10:24.627Z,17.70
2019-02-07T13:13:14.821Z,17.80
2019-02-07T13:15:58.574Z,20.40
2019-02-07T13:18:37.570Z,19.60
2019-02-07T13:21:27.780Z,22.97
2019-02-07T13:24:12.588Z,17.90
2019-02-07T13:26:53.446Z,17.80
2019-02-07T13:29:47.595Z,16.90
2019-02-07T13:32:43.895Z,20.43
2019-02-07T13:35:40.346Z,17.57
2019-02-07T13:38:22.042Z,19.60
2019-02-07T13:41:08.196Z,19.63
2019-02-07T13:44:10.435Z,24.90
2019-02-07T13:46:49.443Z,19.13
2019-02-07T13:49:51.918Z,19.20
2019-02-07T13:52:34.686Z,21.07
2019-02-07T13:55:20.630Z,16.20
2019-02-07T13:58:07.497Z,16.97
2019-02-07T14:00:57.184Z,18.47
2019-02-07T14:03:56.388Z,18.37
2019-02-07T14:06:53.363Z,22.00
2019-02-07T14:09:49.799Z,20.67
2019-02-07T14:12:28.628Z,19.13
2019-02-07T14:15:33.867Z,18.40
2019-02-07T14:18:29.690Z,18.13
2019-02-07T14:21:26.806Z,20.10
2019-02-07T14:24:09.593Z,16.53
2019-02-07T14:26:54.547Z,17.93
2019-02-07T14:29:50.325Z,22.60
2019-02-07T14:32:40.235Z,19.20
2019-02-07T14:35:46.902Z,18.23
2019-02-07T14:38:32.508Z,18.60
2019-02-07T14:41:28.511Z,16.07
2019-02-07T14:44:18.208Z,17.70
2019-02-07T14:46:48.542Z,21.07
2019-02-07T14:49:16.199Z,17.77
2019-02-07T14:51:43.791Z,21.53
2019-02-07T14:54:11.845Z,18.47
2019-02-07T14:56:39.891Z,18.40
2019-02-07T14:59:08.055Z,16.93
2019-02-07T15:01:35.957Z,20.37
2019-02-07T15:04:04.278Z,18.77
2019-02-07T15:06:32.166Z,20.10
2019-02-07T15:09:00.211Z,18.20
2019-02-07T15:11:27.987Z,14.40
2019-02-07T15:13:56.071Z,17.70
2019-02-07T15:16:23.786Z,17.40
2019-02-07T15:18:51.433Z,17.10
2019-02-07T15:21:19.710Z,15.83
2019-02-07T15:23:47.789Z,16.97
2019-02-07T15:26:15.687Z,18.00
2019-02-07T15:28:43.830Z,19.40
2019-02-07T15:31:12.435Z,18.20
2019-02-07T15:33:40.120Z,16.40
2019-02-07T15:36:09.428Z,23.33
2019-02-07T15:38:37.074Z,17.83
2019-02-07T15:41:04.874Z,20.50
2019-02-07T15:43:32.683Z,18.07
2019-02-07T15:46:00.631Z,14.60
2019-02-07T15:48:28.775Z,17.73
2019-02-07T15:50:56.694Z,19.23
2019-02-07T15:53:25.018Z,15.23
2019-02-07T15:55:53.276Z,15.40
2019-02-07T15:58:29.473Z,17.30
2019-02-07T16:01:19.502Z,14.20
2019-02-07T16:03:54.451Z,15.73
2019-02-07T16:06:22.749Z,16.60
2019-02-07T16:08:50.561Z,16.73
2019-02-07T16:11:18.707Z,16.73
2019-02-07T16:13:46.670Z,15.57
2019-02-07T16:16:14.363Z,16.23
2019-02-07T16:18:42.092Z,20.27
2019-02-07T16:21:10.742Z,14.43
2019-02-07T16:23:38.266Z,14.17
2019-02-07T16:26:06.264Z,16.90
2019-02-07T16:28:34.158Z,18.27
2019-02-07T16:31:02.474Z,17.80
2019-02-07T16:33:30.895Z,24.57
2019-02-07T16:35:58.579Z,16.83
2019-02-07T16:38:27.020Z,17.97
2019-02-07T16:40:54.687Z,20.00
2019-02-07T16:43:22.726Z,15.43
2019-02-07T16:45:50.362Z,21.53
2019-02-07T16:48:18.358Z,15.27
2019-02-07T16:50:46.734Z,26.33
2019-02-07T16:53:14.343Z,21.63
2019-02-07T16:55:42.056Z,14.30
2019-02-07T16:58:10.098Z,15.80
2019-02-07T17:00:40.123Z,15.00
2019-02-07T17:03:08.147Z,16.13
2019-02-07T17:05:37.930Z,16.30
2019-02-07T17:08:05.839Z,14.07
2019-02-07T17:10:34.434Z,13.67
2019-02-07T17:13:02.197Z,14.57
2019-02-07T17:15:30.335Z,14.93
2019-02-07T17:17:58.631Z,18.47
2019-02-07T17:20:28.066Z,18.13
2019-02-07T17:22:56.004Z,15.53
2019-02-07T17:25:24.620Z,19.50
2019-02-07T17:27:52.443Z,19.93
2019-02-07T17:30:20.395Z,16.10
2019-02-07T17:32:48.442Z,21.83
2019-02-07T17:35:16.362Z,18.27
2019-02-07T17:37:44.112Z,18.20
2019-02-07T17:40:14.952Z,18.17
2019-02-07T17:42:43.031Z,16.70
2019-02-07T17:45:13.938Z,17.83
2019-02-07T17:47:42.446Z,19.00
2019-02-07T17:50:13.011Z,20.30
2019-02-07T17:52:40.790Z,15.83
2019-02-07T17:55:27.753Z,19.97
2019-02-07T17:58:13.954Z,19.13
2019-02-07T18:01:04.462Z,16.80
2019-02-07T18:03:50.862Z,20.33
2019-02-07T18:06:37.350Z,19.33
2019-02-07T18:09:23.935Z,21.23
2019-02-07T18:12:10.991Z,18.30
2019-02-07T18:14:57.032Z,17.80
2019-02-07T18:17:25.239Z,21.43
2019-02-07T18:19:52.904Z,17.37
2019-02-07T18:22:21.165Z,15.50
2019-02-07T18:24:48.756Z,19.97
2019-02-07T18:27:16.697Z,20.33
2019-02-07T18:29:44.644Z,16.23
2019-02-07T18:32:12.636Z,18.43
2019-02-07T18:34:40.992Z,15.60
2019-02-07T18:37:09.199Z,17.80
2019-02-07T18:39:36.883Z,17.30
2019-02-07T18:42:05.002Z,16.47
2019-02-07T18:44:33.234Z,20.03
2019-02-07T18:47:01.242Z,16.37
2019-02-07T18:49:28.884Z,19.53
2019-02-07T18:51:56.583Z,17.27
2019-02-07T18:54:24.523Z,19.27
2019-02-07T18:56:52.791Z,16.10
2019-02-07T18:59:21.034Z,16.20
2019-02-07T19:01:48.982Z,17.13
2019-02-07T19:04:16.641Z,20.50
2019-02-07T19:06:44.918Z,15.67
2019-02-07T19:09:12.492Z,15.67
2019-02-07T19:11:40.503Z,16.30
2019-02-07T19:14:08.686Z,15.50
2019-02-07T19:16:36.655Z,16.20
2019-02-07T19:19:05.228Z,17.67
2019-02-07T19:21:33.411Z,16.40
2019-02-07T19:24:02.235Z,17.10
2019-02-07T19:26:30.214Z,15.77
2019-02-07T19:28:57.697Z,16.63
2019-02-07T19:31:25.731Z,15.50
2019-02-07T19:33:53.395Z,18.07
2019-02-07T19:36:21.390Z,15.27
2019-02-07T19:38:49.047Z,17.73
2019-02-07T19:41:16.798Z,19.17
2019-02-07T19:43:45.560Z,17.23
2019-02-07T19:46:13.727Z,13.00
2019-02-07T19:48:41.845Z,16.87
2019-02-07T19:51:10.205Z,15.50
2019-02-07T19:53:38.265Z,17.47
2019-02-07T19:56:05.928Z,20.00
2019-02-07T19:58:33.898Z,14.33
2019-02-07T20:01:02.939Z,13.47
2019-02-07T20:03:30.961Z,16.10
2019-02-07T20:05:59.319Z,16.20
2019-02-07T20:08:26.949Z,14.50
2019-02-07T20:10:54.558Z,16.00
2019-02-07T20:13:22.282Z,14.40
2019-02-07T20:15:50.410Z,13.17
2019-02-07T20:18:18.177Z,14.57
2019-02-07T20:20:45.821Z,14.10
2019-02-07T20:23:13.454Z,15.40
2019-02-07T20:25:41.672Z,13.93
2019-02-07T20:28:09.432Z,14.10
2019-02-07T20:30:39.223Z,12.20
2019-02-07T20:33:08.023Z,14.73
2019-02-07T20:35:35.786Z,14.07
2019-02-07T20:38:04.383Z,15.70
2019-02-07T20:40:32.783Z,16.03
2019-02-07T20:43:00.832Z,11.63
2019-02-07T20:45:28.795Z,14.13
2019-02-07T20:47:56.494Z,16.50
2019-02-07T20:50:25.150Z,12.87
2019-02-07T20:52:53.070Z,13.33
2019-02-07T20:55:21.458Z,12.67
2019-02-07T20:57:49.392Z,14.13
2019-02-07T21:00:25.610Z,14.97
2019-02-07T21:02:53.678Z,13.67
2019-02-07T21:05:21.937Z,13.73
2019-02-07T21:07:50.202Z,14.03
2019-02-07T21:10:18.959Z,33.33
2019-02-07T21:12:46.547Z,27.80
2019-02-07T21:15:18.787Z,14.47
2019-02-07T21:17:45.388Z,12.70
2019-02-07T21:20:15.408Z,10.87
2019-02-07T21:22:43.535Z,13.40
2019-02-07T21:25:14.242Z,12.43
2019-02-07T21:27:42.006Z,10.33
2019-02-07T21:30:13.517Z,12.70
2019-02-07T21:32:41.190Z,11.30
2019-02-07T21:35:12.768Z,13.97
2019-02-07T21:37:40.755Z,12.60
2019-02-07T21:40:10.214Z,11.63
2019-02-07T21:42:37.851Z,9.77
2019-02-07T21:45:07.104Z,9.50
2019-02-07T21:47:34.942Z,10.90
2019-02-07T21:50:04.648Z,9.67
2019-02-07T21:52:33.233Z,12.27
2019-02-07T21:55:01.105Z,12.47
2019-02-07T21:57:29.354Z,12.57
2019-02-07T22:00:00.938Z,10.97
2019-02-07T22:02:27.106Z,9.53
2019-02-07T22:04:55.090Z,12.53
2019-02-07T22:07:23.865Z,9.73
2019-02-07T22:09:51.907Z,9.80
2019-02-07T22:12:20.151Z,9.20
2019-02-07T22:14:47.929Z,10.37
2019-02-07T22:17:15.671Z,11.53
2019-02-07T22:19:43.291Z,13.43
2019-02-07T22:22:10.957Z,8.37
2019-02-07T22:24:39.105Z,11.63
2019-02-07T22:27:06.820Z,12.13
2019-02-07T22:29:34.781Z,13.17
2019-02-07T22:32:02.397Z,11.03
2019-02-07T22:34:30.016Z,9.03
2019-02-07T22:36:57.989Z,11.67
2019-02-07T22:39:26.264Z,11.13
2019-02-07T22:41:54.333Z,11.97
2019-02-07T22:44:22.108Z,13.93
2019-02-07T22:46:50.033Z,8.67
2019-02-07T22:49:18.082Z,9.80
2019-02-07T22:51:46.387Z,7.97
2019-02-07T22:54:14.139Z,7.90
2019-02-07T22:56:45.440Z,8.13
2019-02-07T22:59:11.886Z,9.40
2019-02-07T23:01:47.342Z,10.23
2019-02-07T23:04:15.458Z,8.20
2019-02-07T23:06:42.924Z,10.20
2019-02-07T23:09:11.360Z,7.70
2019-02-07T23:11:39.334Z,8.10
2019-02-07T23:14:07.259Z,7.37
2019-02-07T23:16:35.191Z,8.33
2019-02-07T23:19:04.408Z,8.63
2019-02-07T23:21:31.970Z,10.70
2019-02-07T23:23:59.602Z,8.33
2019-02-07T23:26:27.192Z,11.00
2019-02-07T23:28:54.856Z,10.73
2019-02-07T23:31:23.202Z,8.57
2019-02-07T23:33:50.806Z,7.80
2019-02-07T23:36:19.153Z,9.10
2019-02-07T23:38:46.817Z,10.40
2019-02-07T23:41:14.794Z,6.03
2019-02-07T23:43:46.167Z,7.90
2019-02-07T23:46:13.178Z,12.43
2019-02-07T23:48:43.685Z,7.43
2019-02-07T23:51:11.375Z,10.47
2019-02-07T23:53:38.918Z,10.60
2019-02-07T23:56:07.410Z,8.73
2019-02-07T23:58:35.278Z,11.80
